San Patricio, New Mexico
Current Conditions -  °F | °C
As of 1:51 PM on Thursday 23 Oct 2014 (Local Time) from KROW Reporting Station
Clear Clear  
Wind Chill: 75°   Ceiling: Unl
Heat Index: 75°   Visibility: 10mi
Dew Point: 56°   Wind: 9mph
Humidity: 51%   Direction: 150°SSE
Pressure: 30.11"   Gusts: NA
Location:  33.41°N, 105.33°W
Report Text: KROW 231951Z 15008KT 10SM CLR 24/13 A3011 RMK AO2 SLP145 T02390133
Loading
Personal Weather Stations






























Interactive Weather Map
Tropical Storm Tracking
New forecast layout! Learn more

10-Day Weather Forecast

Advertisements
Track Severe Weather on mobile